Verhnedvinsk, Belarus
Current Conditions -  °F | °C
As of 7:00 PM on Saturday 20 Dec 2014 (Local Time) from UMII Reporting Station
Broken Clouds Broken Clouds  
Wind Chill: 28°   Ceiling: 2300
Heat Index: 36°   Visibility: 4mi
Dew Point: 32°   Wind: 11mph
Humidity: 87%   Direction: 210°SSW
Pressure: 29.44"   Gusts: 18mph
Location:  55.82°N, 27.95°E
Report Text: UMII 201700Z 21005G08MPS P6000 BKN023 02/M00 Q0997 R23/290150NOSIG
Loading
Personal Weather Stations






























Interactive Weather Map New forecast layout! Learn more

10-Day Weather Forecast

Advertisements
Track Severe Weather on mobile